sensor_id;sensor_type;location;lat;lon;timestamp;temperature;humidity
48978;DHT22;34793;48.940;2.618;2023-03-03T00:00:41;9.60;67.20
48978;DHT22;34793;48.940;2.618;2023-03-03T00:03:07;9.60;66.90
48978;DHT22;34793;48.940;2.618;2023-03-03T00:05:33;9.80;66.50
48978;DHT22;34793;48.940;2.618;2023-03-03T00:07:59;9.90;66.00
48978;DHT22;34793;48.940;2.618;2023-03-03T00:10:25;10.10;65.50
48978;DHT22;34793;48.940;2.618;2023-03-03T00:12:50;10.00;65.40
48978;DHT22;34793;48.940;2.618;2023-03-03T00:15:17;10.10;65.30
48978;DHT22;34793;48.940;2.618;2023-03-03T00:17:42;9.90;65.50
48978;DHT22;34793;48.940;2.618;2023-03-03T00:22:52;9.80;66.50
48978;DHT22;34793;48.940;2.618;2023-03-03T00:27:50;9.50;67.00
48978;DHT22;34793;48.940;2.618;2023-03-03T00:30:25;9.50;67.00
48978;DHT22;34793;48.940;2.618;2023-03-03T00:32:51;9.70;67.50
48978;DHT22;34793;48.940;2.618;2023-03-03T00:37:52;9.10;69.30
48978;DHT22;34793;48.940;2.618;2023-03-03T00:40:22;9.20;68.60
48978;DHT22;34793;48.940;2.618;2023-03-03T00:42:49;9.20;68.30
48978;DHT22;34793;48.940;2.618;2023-03-03T00:45:17;9.20;67.90
48978;DHT22;34793;48.940;2.618;2023-03-03T00:47:46;9.40;67.30
48978;DHT22;34793;48.940;2.618;2023-03-03T00:52:38;9.60;67.00
48978;DHT22;34793;48.940;2.618;2023-03-03T00:55:04;9.60;66.60
48978;DHT22;34793;48.940;2.618;2023-03-03T00:57:30;9.40;66.60
48978;DHT22;34793;48.940;2.618;2023-03-03T00:59:55;9.60;66.20
48978;DHT22;34793;48.940;2.618;2023-03-03T01:02:21;9.60;65.90
48978;DHT22;34793;48.940;2.618;2023-03-03T01:04:48;9.30;66.80
48978;DHT22;34793;48.940;2.618;2023-03-03T01:07:14;9.20;66.80
48978;DHT22;34793;48.940;2.618;2023-03-03T01:09:39;9.20;67.50
48978;DHT22;34793;48.940;2.618;2023-03-03T01:12:05;9.30;66.80
48978;DHT22;34793;48.940;2.618;2023-03-03T01:14:30;9.60;66.20
48978;DHT22;34793;48.940;2.618;2023-03-03T01:16:56;9.40;66.00
48978;DHT22;34793;48.940;2.618;2023-03-03T01:19:21;9.60;65.60
48978;DHT22;34793;48.940;2.618;2023-03-03T01:21:47;9.30;66.60
48978;DHT22;34793;48.940;2.618;2023-03-03T01:24:12;9.30;67.10
48978;DHT22;34793;48.940;2.618;2023-03-03T01:26:37;9.40;66.70
48978;DHT22;34793;48.940;2.618;2023-03-03T01:29:03;9.40;66.30
48978;DHT22;34793;48.940;2.618;2023-03-03T01:31:28;9.40;66.30
48978;DHT22;34793;48.940;2.618;2023-03-03T01:33:54;9.20;66.80
48978;DHT22;34793;48.940;2.618;2023-03-03T01:36:26;9.40;66.40
48978;DHT22;34793;48.940;2.618;2023-03-03T01:38:52;9.40;66.10
48978;DHT22;34793;48.940;2.618;2023-03-03T01:41:18;9.30;66.40
48978;DHT22;34793;48.940;2.618;2023-03-03T01:43:47;9.30;66.20
48978;DHT22;34793;48.940;2.618;2023-03-03T01:48:44;9.00;67.00
48978;DHT22;34793;48.940;2.618;2023-03-03T01:51:14;8.90;67.20
48978;DHT22;34793;48.940;2.618;2023-03-03T01:53:45;8.70;67.00
48978;DHT22;34793;48.940;2.618;2023-03-03T01:56:12;8.90;67.10
48978;DHT22;34793;48.940;2.618;2023-03-03T01:58:39;9.10;66.90
48978;DHT22;34793;48.940;2.618;2023-03-03T02:01:16;9.30;66.30
48978;DHT22;34793;48.940;2.618;2023-03-03T02:03:43;9.20;66.40
48978;DHT22;34793;48.940;2.618;2023-03-03T02:06:10;9.20;66.20
48978;DHT22;34793;48.940;2.618;2023-03-03T02:11:21;9.20;66.20
48978;DHT22;34793;48.940;2.618;2023-03-03T02:13:47;9.10;66.40
48978;DHT22;34793;48.940;2.618;2023-03-03T02:16:13;9.20;66.00
48978;DHT22;34793;48.940;2.618;2023-03-03T02:18:38;9.40;65.40
48978;DHT22;34793;48.940;2.618;2023-03-03T02:21:07;9.30;65.10
48978;DHT22;34793;48.940;2.618;2023-03-03T02:23:56;9.30;65.50
48978;DHT22;34793;48.940;2.618;2023-03-03T02:26:26;9.40;65.20
48978;DHT22;34793;48.940;2.618;2023-03-03T02:28:52;9.20;65.40
48978;DHT22;34793;48.940;2.618;2023-03-03T02:31:20;9.20;65.20
48978;DHT22;34793;48.940;2.618;2023-03-03T02:33:47;9.20;65.30
48978;DHT22;34793;48.940;2.618;2023-03-03T02:36:14;9.20;65.10
48978;DHT22;34793;48.940;2.618;2023-03-03T02:39:02;9.10;65.60
48978;DHT22;34793;48.940;2.618;2023-03-03T02:41:32;9.10;65.70
48978;DHT22;34793;48.940;2.618;2023-03-03T02:44:00;9.00;65.90
48978;DHT22;34793;48.940;2.618;2023-03-03T02:46:27;9.00;66.40
48978;DHT22;34793;48.940;2.618;2023-03-03T02:48:53;8.90;66.30
48978;DHT22;34793;48.940;2.618;2023-03-03T02:51:18;9.00;66.10
48978;DHT22;34793;48.940;2.618;2023-03-03T02:53:44;9.20;65.40
48978;DHT22;34793;48.940;2.618;2023-03-03T02:56:09;8.90;66.30
48978;DHT22;34793;48.940;2.618;2023-03-03T02:58:35;9.10;65.60
48978;DHT22;34793;48.940;2.618;2023-03-03T03:01:01;9.00;65.70
48978;DHT22;34793;48.940;2.618;2023-03-03T03:03:26;8.80;66.10
48978;DHT22;34793;48.940;2.618;2023-03-03T03:05:52;8.80;66.30
48978;DHT22;34793;48.940;2.618;2023-03-03T03:08:17;8.80;66.50
48978;DHT22;34793;48.940;2.618;2023-03-03T03:10:43;8.70;66.60
48978;DHT22;34793;48.940;2.618;2023-03-03T03:13:08;8.80;66.30
48978;DHT22;34793;48.940;2.618;2023-03-03T03:15:34;8.80;66.00
48978;DHT22;34793;48.940;2.618;2023-03-03T03:18:00;8.90;66.00
48978;DHT22;34793;48.940;2.618;2023-03-03T03:20:25;8.70;66.40
48978;DHT22;34793;48.940;2.618;2023-03-03T03:22:53;8.60;66.60
48978;DHT22;34793;48.940;2.618;2023-03-03T03:25:18;8.80;66.00
48978;DHT22;34793;48.940;2.618;2023-03-03T03:27:44;8.90;65.50
48978;DHT22;34793;48.940;2.618;2023-03-03T03:30:09;8.80;65.50
48978;DHT22;34793;48.940;2.618;2023-03-03T03:32:35;9.00;65.40
48978;DHT22;34793;48.940;2.618;2023-03-03T03:35:00;9.00;65.40
48978;DHT22;34793;48.940;2.618;2023-03-03T03:37:26;8.80;65.80
48978;DHT22;34793;48.940;2.618;2023-03-03T03:39:51;8.90;65.50
48978;DHT22;34793;48.940;2.618;2023-03-03T03:42:18;8.80;65.50
48978;DHT22;34793;48.940;2.618;2023-03-03T03:44:43;8.50;66.50
48978;DHT22;34793;48.940;2.618;2023-03-03T03:47:09;8.60;66.10
48978;DHT22;34793;48.940;2.618;2023-03-03T03:49:34;8.50;66.30
48978;DHT22;34793;48.940;2.618;2023-03-03T03:52:00;8.10;67.10
48978;DHT22;34793;48.940;2.618;2023-03-03T03:54:26;8.20;66.90
48978;DHT22;34793;48.940;2.618;2023-03-03T03:56:51;8.40;66.90
48978;DHT22;34793;48.940;2.618;2023-03-03T03:59:19;8.40;67.00
48978;DHT22;34793;48.940;2.618;2023-03-03T04:01:44;8.40;67.20
48978;DHT22;34793;48.940;2.618;2023-03-03T04:04:10;8.50;66.60
48978;DHT22;34793;48.940;2.618;2023-03-03T04:06:36;8.60;66.40
48978;DHT22;34793;48.940;2.618;2023-03-03T04:09:01;8.70;66.40
48978;DHT22;34793;48.940;2.618;2023-03-03T04:11:27;8.50;67.00
48978;DHT22;34793;48.940;2.618;2023-03-03T04:13:52;8.60;66.80
48978;DHT22;34793;48.940;2.618;2023-03-03T04:16:18;8.50;67.20
48978;DHT22;34793;48.940;2.618;2023-03-03T04:18:43;8.20;67.10
48978;DHT22;34793;48.940;2.618;2023-03-03T04:21:10;8.30;67.10
48978;DHT22;34793;48.940;2.618;2023-03-03T04:23:36;7.90;68.50
48978;DHT22;34793;48.940;2.618;2023-03-03T04:26:02;7.80;69.50
48978;DHT22;34793;48.940;2.618;2023-03-03T04:28:28;7.60;71.00
48978;DHT22;34793;48.940;2.618;2023-03-03T04:30:53;7.60;71.60
48978;DHT22;34793;48.940;2.618;2023-03-03T04:33:18;7.70;71.40
48978;DHT22;34793;48.940;2.618;2023-03-03T04:35:44;7.70;69.90
48978;DHT22;34793;48.940;2.618;2023-03-03T04:38:09;7.70;72.50
48978;DHT22;34793;48.940;2.618;2023-03-03T04:40:35;7.60;72.00
48978;DHT22;34793;48.940;2.618;2023-03-03T04:43:00;7.40;73.60
48978;DHT22;34793;48.940;2.618;2023-03-03T04:45:26;7.50;72.40
48978;DHT22;34793;48.940;2.618;2023-03-03T04:47:51;7.70;71.40
48978;DHT22;34793;48.940;2.618;2023-03-03T04:50:17;7.70;71.30
48978;DHT22;34793;48.940;2.618;2023-03-03T04:52:42;7.80;71.30
48978;DHT22;34793;48.940;2.618;2023-03-03T04:55:08;7.80;70.80
48978;DHT22;34793;48.940;2.618;2023-03-03T04:57:33;7.90;71.60
48978;DHT22;34793;48.940;2.618;2023-03-03T04:59:59;8.10;70.80
48978;DHT22;34793;48.940;2.618;2023-03-03T05:02:24;8.10;70.30
48978;DHT22;34793;48.940;2.618;2023-03-03T05:04:50;8.10;70.00
48978;DHT22;34793;48.940;2.618;2023-03-03T05:07:15;8.20;69.70
48978;DHT22;34793;48.940;2.618;2023-03-03T05:09:43;8.00;69.40
48978;DHT22;34793;48.940;2.618;2023-03-03T05:12:08;8.20;68.80
48978;DHT22;34793;48.940;2.618;2023-03-03T05:14:34;8.10;69.50
48978;DHT22;34793;48.940;2.618;2023-03-03T05:16:59;8.00;68.90
48978;DHT22;34793;48.940;2.618;2023-03-03T05:19:25;8.00;69.60
48978;DHT22;34793;48.940;2.618;2023-03-03T05:21:50;8.10;69.00
48978;DHT22;34793;48.940;2.618;2023-03-03T05:24:16;8.00;69.50
48978;DHT22;34793;48.940;2.618;2023-03-03T05:26:41;7.40;71.40
48978;DHT22;34793;48.940;2.618;2023-03-03T05:29:07;7.50;71.90
48978;DHT22;34793;48.940;2.618;2023-03-03T05:31:33;7.50;73.40
48978;DHT22;34793;48.940;2.618;2023-03-03T05:33:59;7.40;72.70
48978;DHT22;34793;48.940;2.618;2023-03-03T05:36:24;7.30;72.30
48978;DHT22;34793;48.940;2.618;2023-03-03T05:38:50;7.40;72.00
48978;DHT22;34793;48.940;2.618;2023-03-03T05:41:15;7.70;71.70
48978;DHT22;34793;48.940;2.618;2023-03-03T05:43:41;7.80;70.70
48978;DHT22;34793;48.940;2.618;2023-03-03T05:46:06;8.00;70.00
48978;DHT22;34793;48.940;2.618;2023-03-03T05:48:32;7.90;69.40
48978;DHT22;34793;48.940;2.618;2023-03-03T05:50:58;7.70;72.00
48978;DHT22;34793;48.940;2.618;2023-03-03T05:53:24;7.70;71.50
48978;DHT22;34793;48.940;2.618;2023-03-03T05:55:49;7.70;71.40
48978;DHT22;34793;48.940;2.618;2023-03-03T05:58:15;7.80;69.90
48978;DHT22;34793;48.940;2.618;2023-03-03T06:00:40;7.40;72.80
48978;DHT22;34793;48.940;2.618;2023-03-03T06:03:06;7.60;70.90
48978;DHT22;34793;48.940;2.618;2023-03-03T06:05:31;7.80;70.60
48978;DHT22;34793;48.940;2.618;2023-03-03T06:07:57;7.70;70.70
48978;DHT22;34793;48.940;2.618;2023-03-03T06:10:22;7.90;69.90
48978;DHT22;34793;48.940;2.618;2023-03-03T06:12:48;8.20;69.40
48978;DHT22;34793;48.940;2.618;2023-03-03T06:15:13;8.20;68.60
48978;DHT22;34793;48.940;2.618;2023-03-03T06:17:39;7.80;72.20
48978;DHT22;34793;48.940;2.618;2023-03-03T06:20:04;7.80;71.40
48978;DHT22;34793;48.940;2.618;2023-03-03T06:22:31;7.70;72.20
48978;DHT22;34793;48.940;2.618;2023-03-03T06:24:56;7.80;70.70
48978;DHT22;34793;48.940;2.618;2023-03-03T06:27:22;7.90;70.30
48978;DHT22;34793;48.940;2.618;2023-03-03T06:29:47;7.70;70.40
48978;DHT22;34793;48.940;2.618;2023-03-03T06:32:13;7.80;70.80
48978;DHT22;34793;48.940;2.618;2023-03-03T06:34:38;7.90;69.70
48978;DHT22;34793;48.940;2.618;2023-03-03T06:37:05;7.70;72.50
48978;DHT22;34793;48.940;2.618;2023-03-03T06:39:30;7.70;72.30
48978;DHT22;34793;48.940;2.618;2023-03-03T06:41:55;7.60;72.80
48978;DHT22;34793;48.940;2.618;2023-03-03T06:44:21;7.60;72.40
48978;DHT22;34793;48.940;2.618;2023-03-03T06:46:46;7.80;71.60
48978;DHT22;34793;48.940;2.618;2023-03-03T06:49:12;7.80;71.80
48978;DHT22;34793;48.940;2.618;2023-03-03T06:51:38;7.70;73.30
48978;DHT22;34793;48.940;2.618;2023-03-03T06:54:37;7.60;72.70
48978;DHT22;34793;48.940;2.618;2023-03-03T06:56:59;7.40;74.60
48978;DHT22;34793;48.940;2.618;2023-03-03T06:59:28;7.40;75.00
48978;DHT22;34793;48.940;2.618;2023-03-03T07:01:54;7.10;75.80
48978;DHT22;34793;48.940;2.618;2023-03-03T07:04:27;7.20;76.30
48978;DHT22;34793;48.940;2.618;2023-03-03T07:06:54;7.30;77.00
48978;DHT22;34793;48.940;2.618;2023-03-03T07:09:23;7.10;78.50
48978;DHT22;34793;48.940;2.618;2023-03-03T07:11:52;7.00;79.10
48978;DHT22;34793;48.940;2.618;2023-03-03T07:14:20;7.00;79.20
48978;DHT22;34793;48.940;2.618;2023-03-03T07:16:46;6.80;80.80
48978;DHT22;34793;48.940;2.618;2023-03-03T07:19:30;6.90;80.20
48978;DHT22;34793;48.940;2.618;2023-03-03T07:21:57;6.80;80.40
48978;DHT22;34793;48.940;2.618;2023-03-03T07:24:27;6.90;80.60
48978;DHT22;34793;48.940;2.618;2023-03-03T07:27:38;6.90;81.40
48978;DHT22;34793;48.940;2.618;2023-03-03T07:29:38;6.80;81.80
48978;DHT22;34793;48.940;2.618;2023-03-03T07:34:48;6.90;81.70
48978;DHT22;34793;48.940;2.618;2023-03-03T07:37:19;7.10;81.00
48978;DHT22;34793;48.940;2.618;2023-03-03T07:39:49;7.30;79.90
48978;DHT22;34793;48.940;2.618;2023-03-03T07:44:56;7.20;81.10
48978;DHT22;34793;48.940;2.618;2023-03-03T07:47:26;7.10;81.20
48978;DHT22;34793;48.940;2.618;2023-03-03T07:49:58;7.30;80.80
48978;DHT22;34793;48.940;2.618;2023-03-03T07:54:50;7.20;81.90
48978;DHT22;34793;48.940;2.618;2023-03-03T07:59:57;7.30;81.50
48978;DHT22;34793;48.940;2.618;2023-03-03T08:02:40;7.30;81.80
48978;DHT22;34793;48.940;2.618;2023-03-03T08:07:45;7.30;82.30
48978;DHT22;34793;48.940;2.618;2023-03-03T08:10:28;7.50;81.60
48978;DHT22;34793;48.940;2.618;2023-03-03T08:12:56;7.40;82.00
48978;DHT22;34793;48.940;2.618;2023-03-03T08:15:23;7.40;81.90
48978;DHT22;34793;48.940;2.618;2023-03-03T08:17:50;7.30;82.50
48978;DHT22;34793;48.940;2.618;2023-03-03T08:23:00;7.50;82.50
48978;DHT22;34793;48.940;2.618;2023-03-03T08:25:26;7.80;81.70
48978;DHT22;34793;48.940;2.618;2023-03-03T08:27:51;7.90;81.40
48978;DHT22;34793;48.940;2.618;2023-03-03T08:30:17;7.70;81.50
48978;DHT22;34793;48.940;2.618;2023-03-03T08:32:42;8.00;81.40
48978;DHT22;34793;48.940;2.618;2023-03-03T08:35:08;8.20;80.10
48978;DHT22;34793;48.940;2.618;2023-03-03T08:37:33;7.80;80.80
48978;DHT22;34793;48.940;2.618;2023-03-03T08:39:59;7.80;80.80
48978;DHT22;34793;48.940;2.618;2023-03-03T08:42:24;7.90;81.10
48978;DHT22;34793;48.940;2.618;2023-03-03T08:44:50;7.80;81.30
48978;DHT22;34793;48.940;2.618;2023-03-03T08:47:15;7.80;81.30
48978;DHT22;34793;48.940;2.618;2023-03-03T08:49:41;7.80;81.20
48978;DHT22;34793;48.940;2.618;2023-03-03T08:52:06;7.80;80.90
48978;DHT22;34793;48.940;2.618;2023-03-03T08:54:32;7.70;81.00
48978;DHT22;34793;48.940;2.618;2023-03-03T08:56:57;7.50;81.20
48978;DHT22;34793;48.940;2.618;2023-03-03T08:59:23;7.70;81.20
48978;DHT22;34793;48.940;2.618;2023-03-03T09:01:48;7.70;81.10
48978;DHT22;34793;48.940;2.618;2023-03-03T09:04:14;8.10;80.40
48978;DHT22;34793;48.940;2.618;2023-03-03T09:06:39;8.20;79.50
48978;DHT22;34793;48.940;2.618;2023-03-03T09:09:05;8.30;79.40
48978;DHT22;34793;48.940;2.618;2023-03-03T09:11:30;8.10;80.10
48978;DHT22;34793;48.940;2.618;2023-03-03T09:14:09;8.10;80.80
48978;DHT22;34793;48.940;2.618;2023-03-03T09:16:37;8.10;79.70
48978;DHT22;34793;48.940;2.618;2023-03-03T09:19:14;8.10;79.60
48978;DHT22;34793;48.940;2.618;2023-03-03T09:21:40;8.20;79.20
48978;DHT22;34793;48.940;2.618;2023-03-03T09:24:09;8.20;79.00
48978;DHT22;34793;48.940;2.618;2023-03-03T09:26:46;8.00;79.10
48978;DHT22;34793;48.940;2.618;2023-03-03T09:36:43;8.30;79.10
48978;DHT22;34793;48.940;2.618;2023-03-03T09:39:28;8.40;78.40
48978;DHT22;34793;48.940;2.618;2023-03-03T09:55:12;8.90;76.50
48978;DHT22;34793;48.940;2.618;2023-03-03T10:05:51;8.90;76.80
48978;DHT22;34793;48.940;2.618;2023-03-03T10:24:45;10.60;73.80
48978;DHT22;34793;48.940;2.618;2023-03-03T10:35:27;11.90;72.40
48978;DHT22;34793;48.940;2.618;2023-03-03T10:51:40;14.50;65.90
48978;DHT22;34793;48.940;2.618;2023-03-03T10:56:51;14.80;64.60
48978;DHT22;34793;48.940;2.618;2023-03-03T10:59:33;14.80;64.70
48978;DHT22;34793;48.940;2.618;2023-03-03T11:02:07;14.80;64.20
48978;DHT22;34793;48.940;2.618;2023-03-03T11:07:10;14.70;64.70
48978;DHT22;34793;48.940;2.618;2023-03-03T11:12:15;14.70;63.70
48978;DHT22;34793;48.940;2.618;2023-03-03T11:14:46;14.60;62.60
48978;DHT22;34793;48.940;2.618;2023-03-03T11:40:21;16.10;62.00
48978;DHT22;34793;48.940;2.618;2023-03-03T11:45:22;16.70;60.40
48978;DHT22;34793;48.940;2.618;2023-03-03T11:48:01;16.80;60.20
48978;DHT22;34793;48.940;2.618;2023-03-03T11:53:23;16.50;59.50
48978;DHT22;34793;48.940;2.618;2023-03-03T11:55:56;16.30;60.20
48978;DHT22;34793;48.940;2.618;2023-03-03T11:58:28;16.40;60.60
48978;DHT22;34793;48.940;2.618;2023-03-03T12:00:58;16.80;60.20
48978;DHT22;34793;48.940;2.618;2023-03-03T12:03:40;17.10;58.70
48978;DHT22;34793;48.940;2.618;2023-03-03T12:13:58;16.40;59.50
48978;DHT22;34793;48.940;2.618;2023-03-03T12:16:48;16.40;59.00
48978;DHT22;34793;48.940;2.618;2023-03-03T12:27:21;17.20;58.30
48978;DHT22;34793;48.940;2.618;2023-03-03T12:37:20;17.50;56.70
48978;DHT22;34793;48.940;2.618;2023-03-03T12:39:51;17.30;57.80
48978;DHT22;34793;48.940;2.618;2023-03-03T12:42:39;17.30;57.40
48978;DHT22;34793;48.940;2.618;2023-03-03T12:48:20;17.00;57.90
48978;DHT22;34793;48.940;2.618;2023-03-03T12:50:58;17.00;56.50
48978;DHT22;34793;48.940;2.618;2023-03-03T12:53:29;16.70;58.30
48978;DHT22;34793;48.940;2.618;2023-03-03T13:09:29;16.70;58.10
48978;DHT22;34793;48.940;2.618;2023-03-03T13:12:06;16.70;57.80
48978;DHT22;34793;48.940;2.618;2023-03-03T13:17:48;16.70;57.70
48978;DHT22;34793;48.940;2.618;2023-03-03T13:19:51;16.80;58.50
48978;DHT22;34793;48.940;2.618;2023-03-03T13:22:38;16.80;57.60
48978;DHT22;34793;48.940;2.618;2023-03-03T13:27:36;17.10;58.00
48978;DHT22;34793;48.940;2.618;2023-03-03T13:30:07;17.40;58.20
48978;DHT22;34793;48.940;2.618;2023-03-03T13:37:51;16.90;59.10
48978;DHT22;34793;48.940;2.618;2023-03-03T13:40:37;16.80;57.60
48978;DHT22;34793;48.940;2.618;2023-03-03T13:43:27;16.80;57.30
48978;DHT22;34793;48.940;2.618;2023-03-03T13:45:56;17.00;56.90
48978;DHT22;34793;48.940;2.618;2023-03-03T13:48:29;17.10;57.70
48978;DHT22;34793;48.940;2.618;2023-03-03T13:51:02;16.40;56.30
48978;DHT22;34793;48.940;2.618;2023-03-03T13:53:33;16.50;57.70
48978;DHT22;34793;48.940;2.618;2023-03-03T13:56:15;16.50;57.10
48978;DHT22;34793;48.940;2.618;2023-03-03T13:58:47;16.60;58.10
48978;DHT22;34793;48.940;2.618;2023-03-03T14:01:18;16.30;56.50
48978;DHT22;34793;48.940;2.618;2023-03-03T14:06:31;15.80;57.50
48978;DHT22;34793;48.940;2.618;2023-03-03T14:11:25;15.50;58.60
48978;DHT22;34793;48.940;2.618;2023-03-03T14:21:39;16.10;57.00
48978;DHT22;34793;48.940;2.618;2023-03-03T14:24:14;16.40;56.70
48978;DHT22;34793;48.940;2.618;2023-03-03T14:26:44;16.20;57.00
48978;DHT22;34793;48.940;2.618;2023-03-03T14:31:44;16.20;58.00
48978;DHT22;34793;48.940;2.618;2023-03-03T14:36:37;16.60;56.90
48978;DHT22;34793;48.940;2.618;2023-03-03T14:39:22;16.70;56.40
48978;DHT22;34793;48.940;2.618;2023-03-03T14:44:52;16.10;56.80
48978;DHT22;34793;48.940;2.618;2023-03-03T14:47:20;16.30;57.00
48978;DHT22;34793;48.940;2.618;2023-03-03T14:49:46;16.10;58.00
48978;DHT22;34793;48.940;2.618;2023-03-03T14:52:22;16.20;57.90
48978;DHT22;34793;48.940;2.618;2023-03-03T14:54:52;16.00;56.90
48978;DHT22;34793;48.940;2.618;2023-03-03T14:57:38;15.90;57.50
48978;DHT22;34793;48.940;2.618;2023-03-03T15:05:26;15.90;58.20
48978;DHT22;34793;48.940;2.618;2023-03-03T15:10:31;15.90;59.00
48978;DHT22;34793;48.940;2.618;2023-03-03T15:12:57;16.10;58.70
48978;DHT22;34793;48.940;2.618;2023-03-03T15:15:24;15.80;57.90
48978;DHT22;34793;48.940;2.618;2023-03-03T15:20:59;15.40;59.10
48978;DHT22;34793;48.940;2.618;2023-03-03T15:23:16;14.90;59.80
48978;DHT22;34793;48.940;2.618;2023-03-03T15:31:04;14.60;60.40
48978;DHT22;34793;48.940;2.618;2023-03-03T15:38:51;14.20;61.30
48978;DHT22;34793;48.940;2.618;2023-03-03T15:44:04;14.10;61.30
48978;DHT22;34793;48.940;2.618;2023-03-03T15:53:58;14.40;60.90
48978;DHT22;34793;48.940;2.618;2023-03-03T15:56:35;14.40;60.60
48978;DHT22;34793;48.940;2.618;2023-03-03T16:04:32;13.70;61.90
48978;DHT22;34793;48.940;2.618;2023-03-03T16:07:23;13.70;61.70
48978;DHT22;34793;48.940;2.618;2023-03-03T16:10:06;13.50;62.10
48978;DHT22;34793;48.940;2.618;2023-03-03T16:26:06;13.20;63.40
48978;DHT22;34793;48.940;2.618;2023-03-03T16:31:15;12.80;64.40
48978;DHT22;34793;48.940;2.618;2023-03-03T16:38:41;12.70;64.00
48978;DHT22;34793;48.940;2.618;2023-03-03T16:47:13;12.40;64.20
48978;DHT22;34793;48.940;2.618;2023-03-03T16:49:46;12.50;64.00
48978;DHT22;34793;48.940;2.618;2023-03-03T16:52:14;12.30;64.30
48978;DHT22;34793;48.940;2.618;2023-03-03T16:57:10;12.00;65.10
48978;DHT22;34793;48.940;2.618;2023-03-03T16:59:46;12.10;65.90
48978;DHT22;34793;48.940;2.618;2023-03-03T17:09:42;12.30;65.50
48978;DHT22;34793;48.940;2.618;2023-03-03T17:12:17;12.50;65.20
48978;DHT22;34793;48.940;2.618;2023-03-03T17:20:22;12.30;64.90
48978;DHT22;34793;48.940;2.618;2023-03-03T17:25:22;12.30;65.00
48978;DHT22;34793;48.940;2.618;2023-03-03T17:35:54;12.30;65.00
48978;DHT22;34793;48.940;2.618;2023-03-03T17:41:02;12.60;64.30
48978;DHT22;34793;48.940;2.618;2023-03-03T17:46:27;12.50;64.50
48978;DHT22;34793;48.940;2.618;2023-03-03T18:04:07;12.00;64.90
48978;DHT22;34793;48.940;2.618;2023-03-03T18:09:36;11.90;64.70
48978;DHT22;34793;48.940;2.618;2023-03-03T18:14:49;12.20;64.70
48978;DHT22;34793;48.940;2.618;2023-03-03T18:17:21;12.30;64.50
48978;DHT22;34793;48.940;2.618;2023-03-03T18:22:41;12.30;64.40
48978;DHT22;34793;48.940;2.618;2023-03-03T18:25:08;12.20;64.40
48978;DHT22;34793;48.940;2.618;2023-03-03T18:27:40;11.90;64.90
48978;DHT22;34793;48.940;2.618;2023-03-03T18:37:45;12.30;63.60
48978;DHT22;34793;48.940;2.618;2023-03-03T18:42:42;12.40;63.40
48978;DHT22;34793;48.940;2.618;2023-03-03T18:50:32;12.00;63.70
48978;DHT22;34793;48.940;2.618;2023-03-03T18:53:07;12.00;63.90
48978;DHT22;34793;48.940;2.618;2023-03-03T18:55:55;11.50;64.80
48978;DHT22;34793;48.940;2.618;2023-03-03T18:58:32;11.60;65.30
48978;DHT22;34793;48.940;2.618;2023-03-03T19:08:57;11.20;66.70
48978;DHT22;34793;48.940;2.618;2023-03-03T19:16:41;10.90;67.40
48978;DHT22;34793;48.940;2.618;2023-03-03T19:19:09;11.00;67.20
48978;DHT22;34793;48.940;2.618;2023-03-03T19:21:36;10.70;67.60
48978;DHT22;34793;48.940;2.618;2023-03-03T19:24:04;10.70;67.30
48978;DHT22;34793;48.940;2.618;2023-03-03T19:26:40;10.80;67.50
48978;DHT22;34793;48.940;2.618;2023-03-03T19:42:37;11.20;65.30
48978;DHT22;34793;48.940;2.618;2023-03-03T19:47:43;10.90;66.10
48978;DHT22;34793;48.940;2.618;2023-03-03T19:55:52;10.90;65.90
48978;DHT22;34793;48.940;2.618;2023-03-03T19:58:24;11.10;65.00
48978;DHT22;34793;48.940;2.618;2023-03-03T20:00:56;10.90;65.40
48978;DHT22;34793;48.940;2.618;2023-03-03T20:14:21;10.90;65.30
48978;DHT22;34793;48.940;2.618;2023-03-03T20:16:48;11.00;65.20
48978;DHT22;34793;48.940;2.618;2023-03-03T20:22:10;10.90;65.10
48978;DHT22;34793;48.940;2.618;2023-03-03T20:24:47;11.00;65.00
48978;DHT22;34793;48.940;2.618;2023-03-03T20:27:18;11.10;64.80
48978;DHT22;34793;48.940;2.618;2023-03-03T20:40:06;11.00;64.60
48978;DHT22;34793;48.940;2.618;2023-03-03T20:42:54;10.80;65.10
48978;DHT22;34793;48.940;2.618;2023-03-03T20:45:34;10.60;65.50
48978;DHT22;34793;48.940;2.618;2023-03-03T20:50:32;10.50;65.60
48978;DHT22;34793;48.940;2.618;2023-03-03T20:55:55;10.40;65.80
48978;DHT22;34793;48.940;2.618;2023-03-03T21:03:50;10.00;66.70
48978;DHT22;34793;48.940;2.618;2023-03-03T21:06:17;9.90;66.80
48978;DHT22;34793;48.940;2.618;2023-03-03T21:08:50;10.00;66.90
48978;DHT22;34793;48.940;2.618;2023-03-03T21:11:23;10.00;66.90
48978;DHT22;34793;48.940;2.618;2023-03-03T21:14:16;9.90;67.00
48978;DHT22;34793;48.940;2.618;2023-03-03T21:16:42;9.70;67.40
48978;DHT22;34793;48.940;2.618;2023-03-03T21:19:12;9.80;67.50
48978;DHT22;34793;48.940;2.618;2023-03-03T21:21:48;9.90;67.60
48978;DHT22;34793;48.940;2.618;2023-03-03T21:24:14;9.70;67.80
48978;DHT22;34793;48.940;2.618;2023-03-03T21:29:20;9.30;68.90
48978;DHT22;34793;48.940;2.618;2023-03-03T21:31:47;9.30;68.40
48978;DHT22;34793;48.940;2.618;2023-03-03T21:34:21;9.30;68.70
48978;DHT22;34793;48.940;2.618;2023-03-03T21:36:48;9.20;68.60
48978;DHT22;34793;48.940;2.618;2023-03-03T21:39:33;9.40;68.80
48978;DHT22;34793;48.940;2.618;2023-03-03T21:44:32;9.40;68.10
48978;DHT22;34793;48.940;2.618;2023-03-03T21:46:57;9.40;69.10
48978;DHT22;34793;48.940;2.618;2023-03-03T21:49:23;9.40;69.10
48978;DHT22;34793;48.940;2.618;2023-03-03T21:51:49;9.30;69.00
48978;DHT22;34793;48.940;2.618;2023-03-03T21:54:14;9.30;69.00
48978;DHT22;34793;48.940;2.618;2023-03-03T21:56:39;9.30;69.30
48978;DHT22;34793;48.940;2.618;2023-03-03T21:59:06;9.60;68.80
48978;DHT22;34793;48.940;2.618;2023-03-03T22:01:31;9.30;70.00
48978;DHT22;34793;48.940;2.618;2023-03-03T22:03:57;9.20;70.20
48978;DHT22;34793;48.940;2.618;2023-03-03T22:06:22;9.20;69.60
48978;DHT22;34793;48.940;2.618;2023-03-03T22:08:48;9.40;69.10
48978;DHT22;34793;48.940;2.618;2023-03-03T22:11:13;9.30;68.60
48978;DHT22;34793;48.940;2.618;2023-03-03T22:13:39;9.10;70.30
48978;DHT22;34793;48.940;2.618;2023-03-03T22:16:05;9.00;71.00
48978;DHT22;34793;48.940;2.618;2023-03-03T22:18:32;8.80;71.00
48978;DHT22;34793;48.940;2.618;2023-03-03T22:20:57;8.90;70.50
48978;DHT22;34793;48.940;2.618;2023-03-03T22:23:23;8.90;70.00
48978;DHT22;34793;48.940;2.618;2023-03-03T22:25:48;8.90;70.90
48978;DHT22;34793;48.940;2.618;2023-03-03T22:28:14;8.80;71.00
48978;DHT22;34793;48.940;2.618;2023-03-03T22:30:39;8.80;71.30
48978;DHT22;34793;48.940;2.618;2023-03-03T22:33:05;8.80;71.30
48978;DHT22;34793;48.940;2.618;2023-03-03T22:35:30;8.70;71.80
48978;DHT22;34793;48.940;2.618;2023-03-03T22:37:56;8.50;71.60
48978;DHT22;34793;48.940;2.618;2023-03-03T22:40:21;8.70;71.50
48978;DHT22;34793;48.940;2.618;2023-03-03T22:42:47;8.90;70.60
48978;DHT22;34793;48.940;2.618;2023-03-03T22:45:12;9.10;69.50